Time;durP1;ratioP1;P1;durP2;ratioP2;P2;SDS_P1;SDS_P2;PMS_P1;PMS_P2;Temp;Humidity;BMP_temperature;BMP_pressure;BME280_temperature;BME280_humidity;BME280_pressure;Samples;Min_cycle;Max_cycle;Signal;HPM_P1;HPM_P2
2023/05/28 00:01:00;;;;;;;18.98;7.60;;;;;;;;;;5094541;28;20098;-74
2023/05/28 00:03:27;;;;;;;17.00;7.80;;;;;;;;;;5094994;28;20115;-74
2023/05/28 00:05:53;;;;;;;17.67;7.20;;;;;;;;;;5094661;28;20026;-74
2023/05/28 00:08:20;;;;;;;22.08;8.30;;;;;;;;;;5094585;28;20103;-74
2023/05/28 00:10:46;;;;;;;15.90;7.30;;;;;;;;;;5094663;28;20055;-74
2023/05/28 00:13:12;;;;;;;20.63;7.30;;;;;;;;;;5094279;28;20454;-74
2023/05/28 00:15:38;;;;;;;16.00;7.40;;;;;;;;;;5094433;28;20020;-74
2023/05/28 00:18:05;;;;;;;16.05;7.10;;;;;;;;;;5094023;28;20457;-74
2023/05/28 00:20:31;;;;;;;17.35;7.13;;;;;;;;;;5094312;28;20024;-74
2023/05/28 00:22:57;;;;;;;25.75;7.38;;;;;;;;;;5094207;28;20020;-74
2023/05/28 00:25:23;;;;;;;19.90;6.85;;;;;;;;;;5094500;28;20117;-74
2023/05/28 00:27:49;;;;;;;19.75;7.47;;;;;;;;;;5094017;28;20066;-74
2023/05/28 00:30:15;;;;;;;16.15;7.03;;;;;;;;;;5094014;28;20035;-74
2023/05/28 00:32:41;;;;;;;20.30;6.47;;;;;;;;;;5094035;28;20634;-74
2023/05/28 00:35:07;;;;;;;13.80;6.28;;;;;;;;;;5093989;28;20028;-74
2023/05/28 00:37:33;;;;;;;21.52;7.28;;;;;;;;;;5094195;28;20028;-74
2023/05/28 00:39:59;;;;;;;18.60;7.35;;;;;;;;;;5092337;28;20063;-74
2023/05/28 00:42:29;;;;;;;17.38;6.43;;;;;;;;;;5093872;28;20020;-74
2023/05/28 00:44:55;;;;;;;15.43;6.10;;;;;;;;;;5093768;28;20097;-74
2023/05/28 00:47:21;;;;;;;18.17;6.90;;;;;;;;;;5093798;28;20085;-74
2023/05/28 00:49:48;;;;;;;11.73;6.90;;;;;;;;;;5093583;28;20086;-74
2023/05/28 00:52:15;;;;;;;12.38;5.70;;;;;;;;;;5093938;28;20016;-74
2023/05/28 00:54:41;;;;;;;15.25;5.80;;;;;;;;;;5093622;28;20459;-74
2023/05/28 00:57:07;;;;;;;15.48;5.57;;;;;;;;;;5093840;28;20024;-74
2023/05/28 00:59:34;;;;;;;14.88;5.70;;;;;;;;;;5093362;28;20024;-74
2023/05/28 01:02:00;;;;;;;15.80;6.47;;;;;;;;;;5093485;28;20020;-74
2023/05/28 01:04:29;;;;;;;16.48;6.32;;;;;;;;;;5093460;28;20025;-74
2023/05/28 01:06:56;;;;;;;15.38;6.50;;;;;;;;;;5093683;28;20447;-74
2023/05/28 01:09:22;;;;;;;15.50;6.28;;;;;;;;;;5093588;28;20102;-74
2023/05/28 01:11:51;;;;;;;14.40;6.45;;;;;;;;;;5093303;28;20024;-74
2023/05/28 01:14:17;;;;;;;15.50;6.20;;;;;;;;;;5093589;28;20018;-74
2023/05/28 01:16:44;;;;;;;20.63;7.00;;;;;;;;;;5093456;28;20432;-74
2023/05/28 01:19:11;;;;;;;17.85;6.50;;;;;;;;;;5093421;28;20525;-74
2023/05/28 01:21:41;;;;;;;20.35;6.65;;;;;;;;;;5093108;28;20053;-74
2023/05/28 01:24:07;;;;;;;19.45;6.53;;;;;;;;;;5093127;28;20401;-74
2023/05/28 01:26:34;;;;;;;16.60;5.70;;;;;;;;;;5093032;28;20550;-74
2023/05/28 01:29:01;;;;;;;12.93;5.75;;;;;;;;;;5092846;28;20028;-74
2023/05/28 01:31:27;;;;;;;14.00;6.55;;;;;;;;;;5092687;28;20089;-74
2023/05/28 01:33:53;;;;;;;19.85;7.10;;;;;;;;;;5092935;28;20020;-74
2023/05/28 01:36:22;;;;;;;18.55;7.55;;;;;;;;;;5092946;28;20103;-73
2023/05/28 01:38:49;;;;;;;16.92;6.30;;;;;;;;;;5091459;28;20426;-74
2023/05/28 01:41:15;;;;;;;18.17;6.57;;;;;;;;;;5092867;28;20449;-74
2023/05/28 01:43:42;;;;;;;17.42;6.75;;;;;;;;;;5092767;28;20025;-74
2023/05/28 01:46:09;;;;;;;16.67;6.75;;;;;;;;;;5092690;28;20032;-74
2023/05/28 01:48:35;;;;;;;19.98;7.20;;;;;;;;;;5092586;28;20081;-74
2023/05/28 01:51:01;;;;;;;22.67;6.68;;;;;;;;;;5092933;28;20078;-74
2023/05/28 01:53:27;;;;;;;17.52;6.30;;;;;;;;;;5092640;28;20024;-74
2023/05/28 01:55:55;;;;;;;15.48;5.85;;;;;;;;;;5092571;28;20024;-74
2023/05/28 01:58:21;;;;;;;15.15;6.50;;;;;;;;;;5092719;28;20393;-74
2023/05/28 02:00:52;;;;;;;20.10;7.15;;;;;;;;;;5092472;28;20470;-74
2023/05/28 02:03:18;;;;;;;16.33;7.13;;;;;;;;;;5092560;28;20043;-74
2023/05/28 02:05:44;;;;;;;24.63;8.80;;;;;;;;;;5092503;28;20025;-74
2023/05/28 02:08:10;;;;;;;16.75;6.43;;;;;;;;;;5092493;28;20030;-74
2023/05/28 02:10:36;;;;;;;16.27;7.53;;;;;;;;;;5092410;28;20081;-74
2023/05/28 02:13:03;;;;;;;16.70;7.18;;;;;;;;;;5092333;28;20028;-74
2023/05/28 02:15:29;;;;;;;16.33;7.18;;;;;;;;;;5092688;28;20016;-74
2023/05/28 02:17:56;;;;;;;19.55;7.40;;;;;;;;;;5092408;28;20464;-74
2023/05/28 02:20:22;;;;;;;20.00;7.80;;;;;;;;;;5092436;28;20048;-74
2023/05/28 02:22:48;;;;;;;17.77;7.13;;;;;;;;;;5092402;28;20058;-74
2023/05/28 02:25:15;;;;;;;17.80;6.53;;;;;;;;;;5092361;28;20028;-73
2023/05/28 02:27:41;;;;;;;18.67;7.70;;;;;;;;;;5092647;28;20027;-74
2023/05/28 02:30:07;;;;;;;18.15;6.82;;;;;;;;;;5092100;28;20028;-74
2023/05/28 02:32:33;;;;;;;19.13;7.32;;;;;;;;;;5092342;28;20020;-74
2023/05/28 02:35:01;;;;;;;18.42;7.57;;;;;;;;;;5092261;28;20024;-74
2023/05/28 02:37:28;;;;;;;18.05;7.05;;;;;;;;;;5092486;28;20139;-73
2023/05/28 02:40:09;;;;;;;19.30;7.30;;;;;;;;;;5091013;28;20131;-73
2023/05/28 02:42:35;;;;;;;21.15;6.97;;;;;;;;;;5095492;28;20024;-74
2023/05/28 02:45:01;;;;;;;18.63;7.30;;;;;;;;;;5096440;28;20105;-74
2023/05/28 02:47:27;;;;;;;18.77;8.05;;;;;;;;;;5096152;28;20055;-74
2023/05/28 02:49:53;;;;;;;19.40;7.50;;;;;;;;;;5095927;28;20020;-74
2023/05/28 02:52:19;;;;;;;20.83;8.73;;;;;;;;;;5096032;28;20443;-74
2023/05/28 02:54:45;;;;;;;15.75;7.30;;;;;;;;;;5096039;28;20020;-74
2023/05/28 02:57:12;;;;;;;18.75;8.23;;;;;;;;;;5095926;28;20111;-74
2023/05/28 02:59:38;;;;;;;18.20;7.70;;;;;;;;;;5095672;28;20016;-74
2023/05/28 03:02:04;;;;;;;19.63;7.20;;;;;;;;;;5095683;28;20035;-74
2023/05/28 03:04:30;;;;;;;18.50;7.90;;;;;;;;;;5095525;28;20024;-74
2023/05/28 03:06:56;;;;;;;17.88;7.35;;;;;;;;;;5095662;28;20020;-74
2023/05/28 03:09:22;;;;;;;19.23;8.18;;;;;;;;;;5095457;28;20028;-74
2023/05/28 03:11:48;;;;;;;17.83;7.63;;;;;;;;;;5095486;28;20081;-74
2023/05/28 03:14:14;;;;;;;22.10;8.63;;;;;;;;;;5095431;28;20530;-74
2023/05/28 03:16:46;;;;;;;20.20;8.73;;;;;;;;;;5095226;28;20024;-74
2023/05/28 03:19:12;;;;;;;24.00;8.57;;;;;;;;;;5095405;28;20605;-74
2023/05/28 03:21:38;;;;;;;25.63;7.75;;;;;;;;;;5095301;28;20028;-74
2023/05/28 03:24:04;;;;;;;21.92;8.32;;;;;;;;;;5095089;28;20024;-73
2023/05/28 03:26:30;;;;;;;23.63;9.07;;;;;;;;;;5095312;28;20107;-73
2023/05/28 03:28:56;;;;;;;20.25;8.25;;;;;;;;;;5095369;28;20031;-74
2023/05/28 03:31:26;;;;;;;19.85;8.15;;;;;;;;;;5095259;28;20033;-74
2023/05/28 03:33:52;;;;;;;20.58;7.47;;;;;;;;;;5095818;28;20035;-74
2023/05/28 03:36:18;;;;;;;19.25;7.30;;;;;;;;;;5095075;28;20028;-74
2023/05/28 03:38:43;;;;;;;20.08;8.10;;;;;;;;;;5095035;28;20024;-74
2023/05/28 03:41:10;;;;;;;21.30;8.60;;;;;;;;;;5093630;28;20051;-74
2023/05/28 03:43:37;;;;;;;19.05;8.13;;;;;;;;;;5095135;28;20031;-74
2023/05/28 03:46:03;;;;;;;18.48;8.55;;;;;;;;;;5095138;28;20039;-75
2023/05/28 03:48:29;;;;;;;22.17;8.60;;;;;;;;;;5095005;28;20628;-74
2023/05/28 03:50:55;;;;;;;18.75;8.15;;;;;;;;;;5095163;28;20032;-74
2023/05/28 03:53:21;;;;;;;21.75;9.38;;;;;;;;;;5094885;28;20024;-74
2023/05/28 03:55:48;;;;;;;18.77;8.13;;;;;;;;;;5094931;28;20103;-74
2023/05/28 03:58:14;;;;;;;23.52;8.80;;;;;;;;;;5094945;28;20043;-74
2023/05/28 04:00:40;;;;;;;20.63;7.97;;;;;;;;;;5095115;28;20103;-74
2023/05/28 04:03:06;;;;;;;20.90;7.88;;;;;;;;;;5094915;28;20469;-74
2023/05/28 04:05:33;;;;;;;24.98;8.20;;;;;;;;;;5094737;28;20024;-74
2023/05/28 04:07:59;;;;;;;21.15;8.18;;;;;;;;;;5094942;28;20016;-74
2023/05/28 04:10:25;;;;;;;20.95;8.60;;;;;;;;;;5091780;28;20074;-74
2023/05/28 04:12:51;;;;;;;23.17;8.57;;;;;;;;;;5074333;28;20027;-74
2023/05/28 04:15:18;;;;;;;20.45;8.40;;;;;;;;;;5074789;28;20090;-74
2023/05/28 04:17:44;;;;;;;26.20;9.48;;;;;;;;;;5074489;28;20035;-74
2023/05/28 04:20:12;;;;;;;18.15;8.13;;;;;;;;;;5074215;28;20029;-74
2023/05/28 04:22:38;;;;;;;24.30;7.75;;;;;;;;;;5074483;28;20020;-74
2023/05/28 04:25:04;;;;;;;23.15;8.95;;;;;;;;;;5073987;28;20543;-74
2023/05/28 04:27:30;;;;;;;21.95;7.40;;;;;;;;;;5077134;28;20020;-74
2023/05/28 04:29:56;;;;;;;21.08;7.47;;;;;;;;;;5095794;28;20028;-74
2023/05/28 04:32:23;;;;;;;16.98;7.43;;;;;;;;;;5094330;28;20502;-74
2023/05/28 04:34:51;;;;;;;15.73;7.43;;;;;;;;;;5093783;28;20776;-74
2023/05/28 04:37:17;;;;;;;21.13;7.80;;;;;;;;;;5094304;28;20051;-74
2023/05/28 04:39:43;;;;;;;21.20;8.15;;;;;;;;;;5093551;28;20051;-74
2023/05/28 04:42:13;;;;;;;11.45;5.88;;;;;;;;;;5093895;28;20078;-74
2023/05/28 04:44:40;;;;;;;18.58;7.88;;;;;;;;;;5094124;28;20104;-74
2023/05/28 04:47:07;;;;;;;19.10;8.05;;;;;;;;;;5090834;28;20658;-74
2023/05/28 04:49:33;;;;;;;16.63;7.70;;;;;;;;;;5093090;28;20085;-75
2023/05/28 04:51:59;;;;;;;16.83;7.57;;;;;;;;;;5093905;28;20034;-75
2023/05/28 04:54:26;;;;;;;16.10;7.00;;;;;;;;;;5093561;28;20455;-75
2023/05/28 04:56:52;;;;;;;19.63;8.68;;;;;;;;;;5093666;28;20024;-74
2023/05/28 04:59:18;;;;;;;18.15;8.68;;;;;;;;;;5093374;28;20078;-75
2023/05/28 05:01:44;;;;;;;16.02;7.13;;;;;;;;;;5093104;28;20028;-75
2023/05/28 05:04:10;;;;;;;14.77;7.55;;;;;;;;;;5093337;28;20712;-75
2023/05/28 05:06:36;;;;;;;12.73;7.18;;;;;;;;;;5092810;28;20020;-75
2023/05/28 05:09:04;;;;;;;17.40;6.93;;;;;;;;;;5093299;28;20169;-75
2023/05/28 05:11:30;;;;;;;15.82;6.97;;;;;;;;;;5093544;28;20380;-75
2023/05/28 05:13:56;;;;;;;19.73;7.75;;;;;;;;;;5093360;28;20486;-75
2023/05/28 05:16:22;;;;;;;15.27;7.28;;;;;;;;;;5093333;28;20447;-75
2023/05/28 05:18:48;;;;;;;15.25;6.43;;;;;;;;;;5093141;28;20035;-75
2023/05/28 05:21:14;;;;;;;17.40;6.90;;;;;;;;;;5110909;28;20156;-75
2023/05/28 05:23:40;;;;;;;15.00;6.75;;;;;;;;;;5113422;28;20034;-75
2023/05/28 05:26:09;;;;;;;14.57;7.43;;;;;;;;;;5113352;28;20051;-75
2023/05/28 05:28:36;;;;;;;12.80;7.22;;;;;;;;;;5113352;28;20462;-75
2023/05/28 05:31:02;;;;;;;14.30;6.50;;;;;;;;;;5113292;28;20084;-75
2023/05/28 05:33:28;;;;;;;12.63;6.57;;;;;;;;;;5113281;28;20062;-75
2023/05/28 05:35:54;;;;;;;17.17;6.80;;;;;;;;;;5113252;28;20057;-75
2023/05/28 05:38:20;;;;;;;16.35;7.82;;;;;;;;;;5097033;28;20039;-75
2023/05/28 05:40:46;;;;;;;15.63;7.25;;;;;;;;;;5092926;28;20048;-76
2023/05/28 05:43:12;;;;;;;15.10;6.50;;;;;;;;;;5092817;28;20142;-75
2023/05/28 05:45:38;;;;;;;15.15;6.50;;;;;;;;;;5092625;28;20053;-75
2023/05/28 05:48:04;;;;;;;12.27;5.88;;;;;;;;;;5092844;28;20470;-76
2023/05/28 05:50:30;;;;;;;14.05;6.35;;;;;;;;;;5092944;28;20035;-75
2023/05/28 05:52:59;;;;;;;11.90;5.25;;;;;;;;;;5092950;28;20035;-75
2023/05/28 05:55:25;;;;;;;11.88;4.28;;;;;;;;;;5092675;28;20347;-75
2023/05/28 05:57:51;;;;;;;11.27;4.22;;;;;;;;;;5092398;28;20111;-76
2023/05/28 06:00:17;;;;;;;10.30;3.88;;;;;;;;;;5092389;28;20035;-76
2023/05/28 06:02:43;;;;;;;14.75;5.15;;;;;;;;;;5092900;28;20032;-75
2023/05/28 06:05:09;;;;;;;11.25;4.47;;;;;;;;;;5092457;28;20032;-75
2023/05/28 06:07:36;;;;;;;9.88;4.00;;;;;;;;;;5092398;28;20073;-75
2023/05/28 06:10:01;;;;;;;11.00;3.85;;;;;;;;;;5092349;28;20027;-75
2023/05/28 06:12:27;;;;;;;11.05;4.47;;;;;;;;;;5092474;28;20027;-76
2023/05/28 06:14:55;;;;;;;10.18;4.07;;;;;;;;;;5092323;28;20074;-75
2023/05/28 06:17:22;;;;;;;11.07;4.63;;;;;;;;;;5095368;28;20055;-75
2023/05/28 06:19:49;;;;;;;10.57;4.82;;;;;;;;;;5096899;28;20393;-75
2023/05/28 06:22:15;;;;;;;14.18;4.93;;;;;;;;;;5096821;28;20107;-76
2023/05/28 06:24:41;;;;;;;10.45;4.43;;;;;;;;;;5096867;28;20439;-76
2023/05/28 06:27:13;;;;;;;12.32;5.03;;;;;;;;;;5096355;28;20024;-75
2023/05/28 06:29:41;;;;;;;12.48;4.60;;;;;;;;;;5097717;28;20450;-76
2023/05/28 06:32:07;;;;;;;11.52;5.07;;;;;;;;;;5097942;28;20139;-75
2023/05/28 06:34:33;;;;;;;10.20;4.35;;;;;;;;;;5097815;28;20523;-76
2023/05/28 06:36:59;;;;;;;11.55;4.70;;;;;;;;;;5097902;28;20046;-76
2023/05/28 06:39:26;;;;;;;11.10;4.85;;;;;;;;;;5097491;28;20406;-76
2023/05/28 06:41:52;;;;;;;9.73;4.53;;;;;;;;;;5098181;28;20354;-77
2023/05/28 06:44:19;;;;;;;10.65;4.60;;;;;;;;;;5098152;28;20148;-76
2023/05/28 06:46:45;;;;;;;10.93;4.68;;;;;;;;;;5098217;28;20031;-76
2023/05/28 06:49:11;;;;;;;7.00;4.07;;;;;;;;;;5096227;28;20366;-75
2023/05/28 06:51:37;;;;;;;9.75;4.20;;;;;;;;;;5096019;28;20561;-75
2023/05/28 06:54:03;;;;;;;7.65;3.42;;;;;;;;;;5096006;28;20027;-76
2023/05/28 06:56:29;;;;;;;8.43;3.90;;;;;;;;;;5095543;28;20386;-76
2023/05/28 06:58:55;;;;;;;8.20;4.20;;;;;;;;;;5077847;28;20466;-76
2023/05/28 07:01:21;;;;;;;9.60;4.35;;;;;;;;;;5095799;28;20032;-76
2023/05/28 07:03:47;;;;;;;10.05;3.92;;;;;;;;;;5095545;28;20093;-76
2023/05/28 07:06:15;;;;;;;9.35;4.72;;;;;;;;;;5095736;28;20106;-76
2023/05/28 07:08:44;;;;;;;7.78;3.72;;;;;;;;;;5095423;28;20020;-75
2023/05/28 07:11:10;;;;;;;8.93;4.13;;;;;;;;;;5095613;28;20069;-75
2023/05/28 07:13:35;;;;;;;8.07;4.03;;;;;;;;;;5095592;28;20028;-75
2023/05/28 07:16:01;;;;;;;9.35;4.10;;;;;;;;;;5095290;28;20427;-76
2023/05/28 07:18:27;;;;;;;7.78;3.85;;;;;;;;;;5095564;28;20073;-75
2023/05/28 07:20:53;;;;;;;9.45;3.53;;;;;;;;;;5095605;28;20379;-75
2023/05/28 07:23:19;;;;;;;5.57;3.35;;;;;;;;;;5095632;28;20107;-75
2023/05/28 07:25:45;;;;;;;12.15;4.95;;;;;;;;;;5095494;28;20639;-76
2023/05/28 07:28:13;;;;;;;6.82;3.45;;;;;;;;;;5094191;28;20569;-75
2023/05/28 07:30:41;;;;;;;10.18;4.88;;;;;;;;;;5103809;28;20028;-75
2023/05/28 07:33:07;;;;;;;8.40;3.97;;;;;;;;;;5095225;28;20107;-75
2023/05/28 07:35:33;;;;;;;6.90;4.03;;;;;;;;;;5095114;28;20028;-75
2023/05/28 07:37:59;;;;;;;5.65;2.95;;;;;;;;;;5095094;28;20035;-75
2023/05/28 07:40:25;;;;;;;7.63;3.63;;;;;;;;;;5094508;28;20082;-75
2023/05/28 07:42:51;;;;;;;8.02;3.35;;;;;;;;;;5095031;28;20496;-75
2023/05/28 07:45:17;;;;;;;7.22;3.30;;;;;;;;;;5094941;28;20024;-75
2023/05/28 07:47:43;;;;;;;6.82;2.95;;;;;;;;;;5094923;28;20034;-75
2023/05/28 07:50:10;;;;;;;6.53;2.60;;;;;;;;;;5094842;28;20089;-75
2023/05/28 07:52:36;;;;;;;5.97;3.58;;;;;;;;;;5094835;28;20028;-75
2023/05/28 07:55:03;;;;;;;6.60;3.47;;;;;;;;;;5095111;28;20459;-75
2023/05/28 07:57:29;;;;;;;5.75;3.08;;;;;;;;;;5094873;28;20024;-75
2023/05/28 07:59:55;;;;;;;4.38;2.90;;;;;;;;;;5076900;28;20097;-75
2023/05/28 08:02:21;;;;;;;4.65;2.90;;;;;;;;;;5095891;28;20103;-76
2023/05/28 08:04:49;;;;;;;6.30;2.90;;;;;;;;;;5095634;28;20027;-76
2023/05/28 08:07:15;;;;;;;5.13;2.10;;;;;;;;;;5096578;28;20027;-76
2023/05/28 08:09:45;;;;;;;5.80;2.55;;;;;;;;;;5095702;28;20024;-76
2023/05/28 08:12:16;;;;;;;5.05;2.30;;;;;;;;;;5095887;28;20043;-76
2023/05/28 08:14:42;;;;;;;7.90;2.60;;;;;;;;;;5087215;28;20107;-75
2023/05/28 08:17:08;;;;;;;7.35;3.20;;;;;;;;;;5095008;28;20055;-75
2023/05/28 08:19:34;;;;;;;5.28;2.72;;;;;;;;;;5095286;28;20060;-75
2023/05/28 08:22:00;;;;;;;4.32;2.88;;;;;;;;;;5095180;28;20020;-76
2023/05/28 08:24:26;;;;;;;5.28;3.00;;;;;;;;;;5094934;28;20039;-75
2023/05/28 08:26:52;;;;;;;5.93;3.45;;;;;;;;;;5094747;28;20060;-76
2023/05/28 08:29:18;;;;;;;6.72;3.47;;;;;;;;;;5095204;28;20032;-75
2023/05/28 08:31:44;;;;;;;4.18;2.78;;;;;;;;;;5095127;28;20107;-76
2023/05/28 08:34:10;;;;;;;10.15;3.90;;;;;;;;;;5094870;28;20028;-75
2023/05/28 08:36:36;;;;;;;5.38;3.05;;;;;;;;;;5076771;28;20550;-75
2023/05/28 08:39:03;;;;;;;6.22;3.63;;;;;;;;;;5093619;28;20424;-75
2023/05/28 08:41:29;;;;;;;7.65;4.13;;;;;;;;;;5085258;28;20070;-75
2023/05/28 08:43:55;;;;;;;10.15;4.07;;;;;;;;;;5094763;28;20028;-75
2023/05/28 08:46:21;;;;;;;7.60;3.50;;;;;;;;;;5094876;28;20046;-75
2023/05/28 08:48:47;;;;;;;6.78;3.95;;;;;;;;;;5094842;28;20020;-75
2023/05/28 08:51:14;;;;;;;7.03;4.30;;;;;;;;;;5094808;28;20379;-76
2023/05/28 08:53:41;;;;;;;5.95;3.78;;;;;;;;;;5078709;28;20024;-77
2023/05/28 08:56:09;;;;;;;8.73;4.55;;;;;;;;;;5095219;28;20016;-76
2023/05/28 08:58:36;;;;;;;8.07;4.50;;;;;;;;;;5094791;28;20020;-75
2023/05/28 09:01:06;;;;;;;9.35;4.50;;;;;;;;;;5093835;28;20051;-75
2023/05/28 09:03:32;;;;;;;;;;;;;;;;;;5094098;28;20454;-75
2023/05/28 09:05:58;;;;;;;9.65;4.38;;;;;;;;;;5093452;28;19904;-75
2023/05/28 09:08:24;;;;;;;9.30;5.07;;;;;;;;;;5093265;28;20035;-75
2023/05/28 09:10:50;;;;;;;7.53;4.40;;;;;;;;;;5093522;28;20693;-75
2023/05/28 09:13:20;;;;;;;7.10;4.15;;;;;;;;;;5093300;28;20669;-75
2023/05/28 09:15:50;;;;;;;9.60;5.20;;;;;;;;;;5074919;28;20490;-75
2023/05/28 09:18:19;;;;;;;9.18;6.07;;;;;;;;;;5093181;28;20035;-75
2023/05/28 09:20:45;;;;;;;8.98;5.75;;;;;;;;;;5092880;28;20035;-75
2023/05/28 09:23:11;;;;;;;9.93;5.82;;;;;;;;;;5074507;28;20118;-75
2023/05/28 09:25:38;;;;;;;10.02;4.40;;;;;;;;;;5092928;28;20028;-75
2023/05/28 09:28:04;;;;;;;9.98;6.15;;;;;;;;;;5093306;28;20030;-75
2023/05/28 09:30:35;;;;;;;8.90;5.65;;;;;;;;;;5092905;28;20081;-75
2023/05/28 09:33:05;;;;;;;10.45;5.82;;;;;;;;;;5093217;28;20024;-75
2023/05/28 09:35:35;;;;;;;10.25;6.32;;;;;;;;;;5092948;28;20059;-75
2023/05/28 09:38:06;;;;;;;8.63;4.80;;;;;;;;;;5092911;28;20099;-76
2023/05/28 09:40:32;;;;;;;8.70;4.88;;;;;;;;;;5092632;28;20529;-75
2023/05/28 09:42:58;;;;;;;8.73;4.88;;;;;;;;;;5092684;28;20016;-75
2023/05/28 09:45:27;;;;;;;8.50;5.20;;;;;;;;;;5092714;28;20097;-75
2023/05/28 09:47:53;;;;;;;8.35;5.63;;;;;;;;;;5092808;28;20024;-76
2023/05/28 09:50:20;;;;;;;9.45;5.63;;;;;;;;;;5092461;28;20443;-75
2023/05/28 09:52:46;;;;;;;7.35;5.13;;;;;;;;;;5092246;28;20028;-75
2023/05/28 09:55:19;;;;;;;8.85;4.47;;;;;;;;;;5092647;28;20024;-75
2023/05/28 09:57:47;;;;;;;7.30;4.10;;;;;;;;;;5092618;28;20040;-75
2023/05/28 10:00:21;;;;;;;5.70;3.30;;;;;;;;;;5092203;28;20031;-75
2023/05/28 10:02:55;;;;;;;7.22;3.38;;;;;;;;;;5092882;28;20404;-75
2023/05/28 10:05:22;;;;;;;8.50;4.28;;;;;;;;;;5092424;28;20479;-75
2023/05/28 10:07:51;;;;;;;6.72;3.53;;;;;;;;;;5092454;28;20016;-75
2023/05/28 10:10:18;;;;;;;5.35;2.95;;;;;;;;;;5092354;28;20050;-75
2023/05/28 10:12:45;;;;;;;6.90;3.63;;;;;;;;;;5092613;28;20028;-75
2023/05/28 10:15:11;;;;;;;5.00;3.20;;;;;;;;;;5092690;28;20030;-75
2023/05/28 10:17:38;;;;;;;7.13;3.60;;;;;;;;;;5092267;28;20378;-75
2023/05/28 10:20:04;;;;;;;9.30;3.83;;;;;;;;;;5092297;28;20055;-75
2023/05/28 10:22:31;;;;;;;4.95;3.05;;;;;;;;;;5092375;28;20027;-75
2023/05/28 10:25:00;;;;;;;6.57;3.75;;;;;;;;;;5113165;28;20016;-75
2023/05/28 10:27:31;;;;;;;7.80;3.65;;;;;;;;;;5113763;28;20052;-76
2023/05/28 10:29:56;;;;;;;5.10;3.08;;;;;;;;;;5113400;28;20064;-77
2023/05/28 10:32:23;;;;;;;6.05;3.35;;;;;;;;;;5109164;28;20028;-75
2023/05/28 10:34:49;;;;;;;5.50;2.42;;;;;;;;;;5093093;28;20150;-75
2023/05/28 10:37:22;;;;;;;5.03;2.05;;;;;;;;;;5092907;28;20024;-75
2023/05/28 10:39:48;;;;;;;5.78;3.15;;;;;;;;;;5092119;28;20344;-75
2023/05/28 10:42:16;;;;;;;4.35;2.67;;;;;;;;;;5092870;28;20068;-75
2023/05/28 10:45:00;;;;;;;6.50;1.77;;;;;;;;;;5093271;28;20021;-75
2023/05/28 10:47:33;;;;;;;5.65;2.25;;;;;;;;;;5093152;28;20031;-75
2023/05/28 10:50:08;;;;;;;4.57;2.20;;;;;;;;;;5092176;28;20024;-75
2023/05/28 10:52:34;;;;;;;5.97;2.47;;;;;;;;;;5092469;28;20025;-75
2023/05/28 10:55:05;;;;;;;4.20;1.85;;;;;;;;;;5074245;28;20031;-76
2023/05/28 10:57:43;;;;;;;2.35;1.60;;;;;;;;;;5092436;28;20474;-75
2023/05/28 11:00:13;;;;;;;3.40;2.00;;;;;;;;;;5092778;28;20028;-75
2023/05/28 11:02:41;;;;;;;8.25;2.97;;;;;;;;;;5093987;28;20043;-75
2023/05/28 11:05:07;;;;;;;4.38;2.30;;;;;;;;;;5096278;28;20031;-76
2023/05/28 11:07:33;;;;;;;5.80;2.17;;;;;;;;;;5096148;28;20032;-76
2023/05/28 11:10:00;;;;;;;6.78;2.28;;;;;;;;;;5077473;28;20120;-75
2023/05/28 11:12:26;;;;;;;5.13;2.75;;;;;;;;;;5095975;28;20020;-75
2023/05/28 11:14:52;;;;;;;9.98;3.03;;;;;;;;;;5096056;28;20034;-75
2023/05/28 11:17:19;;;;;;;6.72;2.72;;;;;;;;;;5096082;28;20043;-75
2023/05/28 11:19:46;;;;;;;6.28;2.70;;;;;;;;;;5096195;28;20056;-75
2023/05/28 11:22:19;;;;;;;8.65;3.15;;;;;;;;;;5077779;28;20063;-75
2023/05/28 11:24:57;;;;;;;6.35;2.95;;;;;;;;;;5096167;28;20424;-75
2023/05/28 11:27:23;;;;;;;8.73;3.20;;;;;;;;;;5096238;28;20418;-75
2023/05/28 11:29:50;;;;;;;9.77;3.72;;;;;;;;;;5095799;28;20038;-75
2023/05/28 11:32:18;;;;;;;6.32;2.70;;;;;;;;;;5096219;28;20090;-75
2023/05/28 11:34:45;;;;;;;7.88;3.40;;;;;;;;;;5096233;28;20024;-75
2023/05/28 11:37:11;;;;;;;7.10;2.67;;;;;;;;;;5096267;28;20062;-75
2023/05/28 11:39:39;;;;;;;6.57;2.67;;;;;;;;;;5094180;28;20052;-75
2023/05/28 11:42:08;;;;;;;5.22;2.22;;;;;;;;;;5095405;28;20024;-76
2023/05/28 11:44:44;;;;;;;4.40;2.50;;;;;;;;;;5095236;28;20092;-76
2023/05/28 11:47:10;;;;;;;10.00;2.65;;;;;;;;;;5095899;28;20035;-75
2023/05/28 11:49:37;;;;;;;7.63;2.40;;;;;;;;;;5077274;28;20363;-75
2023/05/28 11:52:03;;;;;;;7.75;2.65;;;;;;;;;;5095214;28;20458;-75
2023/05/28 11:54:29;;;;;;;4.93;2.58;;;;;;;;;;5095079;28;20069;-75
2023/05/28 11:56:55;;;;;;;5.32;2.55;;;;;;;;;;5095630;28;20023;-75
2023/05/28 11:59:25;;;;;;;5.25;2.97;;;;;;;;;;5095593;28;20103;-75
2023/05/28 12:01:51;;;;;;;6.55;2.08;;;;;;;;;;5099570;28;20014;-75
2023/05/28 12:04:22;;;;;;;6.30;2.17;;;;;;;;;;5116691;28;20509;-75
2023/05/28 12:06:54;;;;;;;6.20;2.20;;;;;;;;;;5116344;28;20027;-76
2023/05/28 12:09:20;;;;;;;4.78;2.10;;;;;;;;;;5116200;28;20407;-76
2023/05/28 12:12:05;;;;;;;6.43;1.70;;;;;;;;;;5116464;28;20102;-75
2023/05/28 12:14:32;;;;;;;6.13;2.78;;;;;;;;;;5097416;28;20028;-76
2023/05/28 12:17:04;;;;;;;5.80;1.70;;;;;;;;;;5095849;28;20128;-75
2023/05/28 12:19:34;;;;;;;6.07;2.45;;;;;;;;;;5095243;28;20028;-76
2023/05/28 12:22:00;;;;;;;8.50;2.17;;;;;;;;;;5095168;28;20073;-75
2023/05/28 12:24:27;;;;;;;7.30;2.67;;;;;;;;;;5095405;28;20024;-75
2023/05/28 12:26:53;;;;;;;7.15;2.75;;;;;;;;;;5077117;28;20123;-76
2023/05/28 12:29:19;;;;;;;6.03;2.40;;;;;;;;;;5094991;28;20161;-75
2023/05/28 12:31:45;;;;;;;5.32;2.20;;;;;;;;;;5076831;28;20104;-75
2023/05/28 12:34:11;;;;;;;5.82;2.00;;;;;;;;;;5095082;28;20036;-75
2023/05/28 12:36:38;;;;;;;3.72;2.00;;;;;;;;;;5094938;28;20348;-75
2023/05/28 12:39:07;;;;;;;5.50;3.10;;;;;;;;;;5095285;28;20643;-75
2023/05/28 12:41:33;;;;;;;5.80;2.90;;;;;;;;;;5094439;28;20032;-75
2023/05/28 12:43:59;;;;;;;10.40;3.10;;;;;;;;;;5095496;28;20074;-75
2023/05/28 12:46:25;;;;;;;5.15;2.88;;;;;;;;;;5094742;28;20028;-75
2023/05/28 12:48:51;;;;;;;6.35;2.97;;;;;;;;;;5095466;28;20028;-75
2023/05/28 12:51:17;;;;;;;7.18;3.30;;;;;;;;;;5095222;28;20375;-75
2023/05/28 12:53:43;;;;;;;5.97;2.33;;;;;;;;;;5095396;28;20439;-77
2023/05/28 12:56:09;;;;;;;7.13;2.78;;;;;;;;;;5095165;28;20082;-75
2023/05/28 12:58:35;;;;;;;4.05;2.33;;;;;;;;;;5095543;28;20020;-75
2023/05/28 13:01:08;;;;;;;9.55;2.88;;;;;;;;;;5095168;28;20028;-75
2023/05/28 13:03:34;;;;;;;5.80;2.60;;;;;;;;;;5095910;28;20483;-75
2023/05/28 13:06:00;;;;;;;7.68;3.08;;;;;;;;;;5095753;28;20032;-75
2023/05/28 13:08:26;;;;;;;5.20;2.33;;;;;;;;;;5095917;28;20072;-76
2023/05/28 13:10:52;;;;;;;9.15;2.88;;;;;;;;;;5095713;28;20452;-76
2023/05/28 13:13:18;;;;;;;10.68;2.97;;;;;;;;;;5095297;28;20082;-75
2023/05/28 13:15:44;;;;;;;5.35;1.98;;;;;;;;;;5095360;28;20406;-76
2023/05/28 13:18:11;;;;;;;3.60;2.20;;;;;;;;;;5096101;28;20028;-75
2023/05/28 13:20:37;;;;;;;7.05;2.47;;;;;;;;;;5095673;28;20449;-75
2023/05/28 13:23:03;;;;;;;5.93;2.50;;;;;;;;;;5077315;28;20024;-75
2023/05/28 13:25:29;;;;;;;3.67;1.75;;;;;;;;;;5076745;28;20048;-76
2023/05/28 13:27:55;;;;;;;7.97;2.53;;;;;;;;;;5095410;28;20077;-75
2023/05/28 13:30:21;;;;;;;6.10;2.63;;;;;;;;;;5095717;28;20028;-75
2023/05/28 13:32:47;;;;;;;7.88;2.95;;;;;;;;;;5089964;28;20028;-75
2023/05/28 13:35:14;;;;;;;10.43;2.60;;;;;;;;;;5089510;28;20050;-75
2023/05/28 13:37:40;;;;;;;7.15;2.20;;;;;;;;;;5096261;28;20425;-75
2023/05/28 13:40:10;;;;;;;6.13;2.55;;;;;;;;;;5095199;28;20059;-75
2023/05/28 13:42:36;;;;;;;8.77;3.40;;;;;;;;;;5095670;28;20497;-76
2023/05/28 13:45:03;;;;;;;6.05;2.05;;;;;;;;;;5077535;28;20016;-75
2023/05/28 13:47:29;;;;;;;7.60;2.58;;;;;;;;;;5095712;28;20016;-75
2023/05/28 13:50:03;;;;;;;6.20;2.75;;;;;;;;;;5094891;28;20107;-76
2023/05/28 13:52:29;;;;;;;10.40;3.30;;;;;;;;;;5094652;28;20056;-75
2023/05/28 13:54:55;;;;;;;5.50;2.60;;;;;;;;;;5107357;28;20028;-76
2023/05/28 13:57:21;;;;;;;8.43;3.35;;;;;;;;;;5115420;28;20428;-75
2023/05/28 13:59:47;;;;;;;6.30;2.88;;;;;;;;;;5115428;28;20500;-75
2023/05/28 14:02:13;;;;;;;5.22;2.17;;;;;;;;;;5097043;28;20023;-76
2023/05/28 14:04:39;;;;;;;5.72;3.28;;;;;;;;;;5115627;28;20026;-75
2023/05/28 14:07:05;;;;;;;5.88;2.15;;;;;;;;;;5105366;28;20028;-75
2023/05/28 14:09:31;;;;;;;5.07;2.25;;;;;;;;;;5095188;28;20366;-76
2023/05/28 14:11:57;;;;;;;8.07;2.67;;;;;;;;;;5095218;28;20024;-76
2023/05/28 14:14:23;;;;;;;9.02;3.40;;;;;;;;;;5094765;28;20021;-75
2023/05/28 14:16:50;;;;;;;8.27;3.83;;;;;;;;;;5095022;28;20099;-75
2023/05/28 14:19:16;;;;;;;5.93;3.10;;;;;;;;;;5094862;28;20036;-75
2023/05/28 14:21:43;;;;;;;9.60;3.75;;;;;;;;;;5076819;28;20069;-75
2023/05/28 14:24:09;;;;;;;4.63;2.05;;;;;;;;;;5095126;28;20024;-75
2023/05/28 14:26:35;;;;;;;3.08;1.83;;;;;;;;;;5116675;28;20454;-75
2023/05/28 14:29:34;;;;;;;7.00;2.65;;;;;;;;;;5113968;28;20069;-75
2023/05/28 14:32:07;;;;;;;9.25;3.85;;;;;;;;;;5114044;28;20031;-76
2023/05/28 14:34:33;;;;;;;8.23;3.15;;;;;;;;;;5100540;28;20474;-75